createdAt,value
2019-01-26T00:00:23.743Z,98.74
2019-01-26T00:03:27.504Z,98.43
2019-01-26T00:06:31.234Z,99.36
2019-01-26T00:09:34.920Z,99.64
2019-01-26T00:12:38.564Z,99.68
2019-01-26T00:15:42.311Z,99.98
2019-01-26T00:18:45.985Z,99.79
2019-01-26T00:21:49.664Z,99.80
2019-01-26T00:24:53.446Z,99.93
2019-01-26T00:27:57.066Z,99.97
2019-01-26T00:31:00.715Z,99.77
2019-01-26T00:34:04.493Z,98.91
2019-01-26T00:37:08.234Z,99.17
2019-01-26T00:40:12.000Z,99.54
2019-01-26T00:43:15.572Z,99.48
2019-01-26T00:46:19.183Z,98.80
2019-01-26T00:49:22.877Z,98.73
2019-01-26T00:52:26.540Z,99.48
2019-01-26T00:55:30.132Z,99.41
2019-01-26T00:58:33.773Z,99.47
2019-01-26T01:01:37.412Z,99.34
2019-01-26T01:04:41.149Z,99.70
2019-01-26T01:07:44.871Z,99.78
2019-01-26T01:10:48.459Z,99.75
2019-01-26T01:13:52.004Z,99.80
2019-01-26T01:16:55.707Z,99.85
2019-01-26T01:19:59.349Z,100.00
2019-01-26T01:23:03.061Z,100.00
2019-01-26T01:26:06.724Z,99.64
2019-01-26T01:29:10.498Z,98.73
2019-01-26T01:32:14.055Z,98.91
2019-01-26T01:35:17.667Z,98.98
2019-01-26T01:38:21.301Z,98.89
2019-01-26T01:41:24.933Z,98.63
2019-01-26T01:44:28.570Z,96.93
2019-01-26T01:47:32.169Z,95.39
2019-01-26T01:50:35.776Z,94.44
2019-01-26T01:53:39.497Z,92.73
2019-01-26T01:56:43.149Z,92.81
2019-01-26T01:59:46.870Z,92.55
2019-01-26T02:02:51.467Z,92.69
2019-01-26T02:05:56.157Z,92.10
2019-01-26T02:08:59.749Z,92.28
2019-01-26T02:12:03.303Z,91.63
2019-01-26T02:15:07.530Z,90.84
2019-01-26T02:18:11.189Z,91.71
2019-01-26T02:21:14.856Z,91.47
2019-01-26T02:24:18.496Z,92.18
2019-01-26T02:27:22.290Z,92.70
2019-01-26T02:30:25.877Z,92.85
2019-01-26T02:33:29.406Z,92.13
2019-01-26T02:36:33.108Z,92.93
2019-01-26T02:39:36.713Z,92.66
2019-01-26T02:42:40.439Z,93.42
2019-01-26T02:45:44.102Z,92.88
2019-01-26T02:48:47.692Z,92.88
2019-01-26T02:51:51.186Z,92.69
2019-01-26T02:54:54.856Z,92.75
2019-01-26T02:57:58.542Z,91.91
2019-01-26T03:01:02.142Z,91.94
2019-01-26T03:04:05.718Z,92.17
2019-01-26T03:07:09.373Z,90.99
2019-01-26T03:10:14.767Z,90.70
2019-01-26T03:13:18.408Z,89.73
2019-01-26T03:16:21.995Z,89.35
2019-01-26T03:19:25.614Z,89.83
2019-01-26T03:22:29.185Z,88.89
2019-01-26T03:25:32.804Z,88.54
2019-01-26T03:28:36.396Z,88.48
2019-01-26T03:31:39.982Z,88.82
2019-01-26T03:34:43.541Z,89.23
2019-01-26T03:37:47.268Z,88.79
2019-01-26T03:40:50.770Z,89.99
2019-01-26T03:43:54.297Z,89.32
2019-01-26T03:46:57.905Z,89.24
2019-01-26T03:50:01.551Z,88.93
2019-01-26T03:53:05.172Z,89.21
2019-01-26T03:56:08.722Z,89.23
2019-01-26T03:59:12.431Z,88.86
2019-01-26T04:02:16.114Z,88.94
2019-01-26T04:05:19.748Z,89.10
2019-01-26T04:08:23.407Z,89.39
2019-01-26T04:11:27.006Z,88.92
2019-01-26T04:14:30.628Z,89.18
2019-01-26T04:17:34.279Z,90.33
2019-01-26T04:20:37.982Z,90.90
2019-01-26T04:23:41.620Z,91.03
2019-01-26T04:26:45.280Z,91.29
2019-01-26T04:29:48.958Z,91.87
2019-01-26T04:32:52.527Z,92.24
2019-01-26T04:35:56.144Z,92.34
2019-01-26T04:38:59.742Z,92.43
2019-01-26T04:42:03.379Z,92.36
2019-01-26T04:45:08.797Z,92.92
2019-01-26T04:48:12.425Z,93.18
2019-01-26T04:51:16.045Z,93.19
2019-01-26T04:54:19.617Z,93.81
2019-01-26T04:57:23.230Z,94.15
2019-01-26T05:00:28.036Z,94.13
2019-01-26T05:03:31.667Z,94.42
2019-01-26T05:06:35.235Z,94.74
2019-01-26T05:09:38.988Z,95.17
2019-01-26T05:12:42.582Z,94.82
2019-01-26T05:15:46.182Z,94.94
2019-01-26T05:18:49.731Z,94.91
2019-01-26T05:21:53.410Z,95.37
2019-01-26T05:24:57.098Z,95.58
2019-01-26T05:28:00.804Z,95.38
2019-01-26T05:31:04.512Z,95.68
2019-01-26T05:34:08.203Z,95.19
2019-01-26T05:37:11.931Z,95.34
2019-01-26T05:40:16.230Z,95.39
2019-01-26T05:43:19.920Z,95.58
2019-01-26T05:46:23.610Z,95.20
2019-01-26T05:49:27.267Z,95.37
2019-01-26T05:52:30.967Z,95.50
2019-01-26T05:55:34.687Z,95.33
2019-01-26T05:58:38.286Z,95.12
2019-01-26T06:01:42.046Z,94.62
2019-01-26T06:04:45.652Z,94.12
2019-01-26T06:07:50.133Z,94.25
2019-01-26T06:10:52.969Z,93.68
2019-01-26T06:13:56.678Z,93.87
2019-01-26T06:17:00.207Z,94.37
2019-01-26T06:20:03.985Z,94.31
2019-01-26T06:23:07.610Z,93.68
2019-01-26T06:26:11.200Z,93.85
2019-01-26T06:29:14.819Z,92.93
2019-01-26T06:32:18.568Z,93.82
2019-01-26T06:35:22.263Z,94.26
2019-01-26T06:38:25.945Z,93.99
2019-01-26T06:41:29.564Z,94.56
2019-01-26T06:44:33.184Z,94.81
2019-01-26T06:47:37.002Z,94.49
2019-01-26T06:50:40.706Z,95.16
2019-01-26T06:53:44.403Z,94.71
2019-01-26T06:56:49.171Z,94.77
2019-01-26T06:59:52.841Z,95.08
2019-01-26T07:02:56.652Z,95.15
2019-01-26T07:06:11.422Z,95.19
2019-01-26T07:09:15.178Z,95.53
2019-01-26T07:12:18.963Z,95.32
2019-01-26T07:15:22.730Z,95.32
2019-01-26T07:18:26.246Z,95.23
2019-01-26T07:21:29.929Z,95.53
2019-01-26T07:24:33.622Z,95.62
2019-01-26T07:27:37.391Z,95.92
2019-01-26T07:30:41.080Z,95.48
2019-01-26T07:33:44.962Z,95.62
2019-01-26T07:36:48.595Z,95.71
2019-01-26T07:39:53.143Z,95.74
2019-01-26T07:42:56.882Z,95.49
2019-01-26T07:46:00.587Z,95.14
2019-01-26T07:49:04.294Z,95.71
2019-01-26T07:52:07.873Z,95.49
2019-01-26T07:55:11.621Z,95.57
2019-01-26T07:58:15.211Z,94.88
2019-01-26T08:01:18.858Z,95.32
2019-01-26T08:04:22.469Z,95.10
2019-01-26T08:07:26.352Z,95.05
2019-01-26T08:10:32.814Z,94.89
2019-01-26T08:13:36.495Z,95.31
2019-01-26T08:16:40.245Z,94.87
2019-01-26T08:19:43.947Z,95.38
2019-01-26T08:22:48.711Z,95.79
2019-01-26T08:25:52.475Z,95.57
2019-01-26T08:28:56.192Z,95.04
2019-01-26T08:32:00.116Z,95.31
2019-01-26T08:35:05.237Z,94.63
2019-01-26T08:38:08.990Z,94.31
2019-01-26T08:41:12.757Z,94.24
2019-01-26T08:44:16.451Z,93.82
2019-01-26T08:47:20.150Z,93.44
2019-01-26T08:50:25.136Z,93.96
2019-01-26T08:53:28.778Z,93.46
2019-01-26T08:56:32.591Z,93.53
2019-01-26T08:59:36.229Z,93.75
2019-01-26T09:04:46.959Z,94.30
2019-01-26T09:07:50.788Z,93.17
2019-01-26T09:10:54.761Z,93.47
2019-01-26T09:13:58.406Z,93.59
2019-01-26T09:17:02.214Z,93.30
2019-01-26T09:20:07.882Z,93.02
2019-01-26T09:23:11.649Z,92.66
2019-01-26T09:26:17.125Z,93.11
2019-01-26T09:29:20.783Z,93.01
2019-01-26T09:32:24.406Z,93.10
2019-01-26T09:35:28.026Z,92.97
2019-01-26T09:38:31.681Z,92.96
2019-01-26T09:41:35.309Z,92.55
2019-01-26T09:44:38.955Z,92.63
2019-01-26T09:47:42.572Z,92.84
2019-01-26T09:50:46.355Z,92.49
2019-01-26T09:53:49.887Z,92.74
2019-01-26T09:56:53.489Z,93.09
2019-01-26T09:59:57.087Z,93.24
2019-01-26T10:03:00.673Z,93.18
2019-01-26T10:06:04.323Z,93.28
2019-01-26T10:09:10.922Z,93.40
2019-01-26T10:12:14.522Z,93.53
2019-01-26T10:15:18.496Z,93.56
2019-01-26T10:18:22.152Z,93.61
2019-01-26T10:21:25.871Z,93.79
2019-01-26T10:24:29.523Z,94.21
2019-01-26T10:27:33.290Z,94.28
2019-01-26T10:30:41.505Z,94.81
2019-01-26T10:33:45.235Z,94.93
2019-01-26T10:36:53.269Z,95.12
2019-01-26T10:39:56.868Z,95.12
2019-01-26T10:43:01.329Z,95.15
2019-01-26T10:46:05.111Z,95.80
2019-01-26T10:49:08.723Z,95.68
2019-01-26T10:52:12.997Z,95.28
2019-01-26T10:55:19.243Z,94.08
2019-01-26T10:58:24.750Z,94.18
2019-01-26T11:01:28.657Z,93.31
2019-01-26T11:04:32.785Z,93.83
2019-01-26T11:07:36.681Z,93.71
2019-01-26T11:10:40.662Z,93.85
2019-01-26T11:13:45.580Z,93.88
2019-01-26T11:16:49.224Z,93.86
2019-01-26T11:19:52.781Z,94.14
2019-01-26T11:23:03.763Z,94.36
2019-01-26T11:26:08.718Z,94.47
2019-01-26T11:29:13.341Z,94.14
2019-01-26T11:35:49.027Z,94.17
2019-01-26T11:38:52.721Z,94.90
2019-01-26T11:41:56.944Z,94.72
2019-01-26T11:47:10.092Z,94.95
2019-01-26T11:50:18.314Z,94.74
2019-01-26T11:53:22.644Z,94.73
2019-01-26T11:56:31.916Z,95.17
2019-01-26T11:59:36.128Z,94.53
2019-01-26T12:02:48.379Z,94.80
2019-01-26T12:05:58.453Z,95.24
2019-01-26T12:09:05.137Z,95.42
2019-01-26T12:15:41.359Z,95.08
2019-01-26T12:18:45.836Z,95.29
2019-01-26T12:25:21.083Z,95.38
2019-01-26T12:28:24.739Z,95.50
2019-01-26T12:31:28.561Z,95.10
2019-01-26T12:34:32.539Z,95.09
2019-01-26T12:37:36.193Z,94.75
2019-01-26T12:40:40.988Z,95.21
2019-01-26T12:43:44.599Z,94.72
2019-01-26T12:46:48.388Z,94.23
2019-01-26T12:49:52.042Z,94.05
2019-01-26T12:52:55.683Z,94.43
2019-01-26T12:55:59.310Z,94.50
2019-01-26T12:59:04.070Z,94.71
2019-01-26T13:02:07.914Z,95.04
2019-01-26T13:05:11.602Z,94.83
2019-01-26T13:08:15.374Z,95.16
2019-01-26T13:11:22.943Z,95.24
2019-01-26T13:14:26.611Z,95.39
2019-01-26T13:17:30.290Z,96.08
2019-01-26T13:20:34.024Z,97.15
2019-01-26T13:23:37.570Z,98.50
2019-01-26T13:26:47.881Z,99.02
2019-01-26T13:29:51.514Z,99.48
2019-01-26T13:32:55.265Z,99.63
2019-01-26T13:35:58.945Z,99.44
2019-01-26T13:39:02.592Z,99.42
2019-01-26T13:42:06.499Z,99.54
2019-01-26T13:45:13.091Z,100.00
2019-01-26T13:48:16.675Z,100.00
2019-01-26T13:51:22.411Z,100.00
2019-01-26T13:54:26.252Z,100.00
2019-01-26T13:57:30.474Z,100.00
2019-01-26T14:00:34.157Z,100.00
2019-01-26T14:03:38.156Z,100.00
2019-01-26T14:06:42.215Z,100.00
2019-01-26T14:12:56.239Z,100.00
2019-01-26T14:15:59.947Z,100.00
2019-01-26T14:19:03.609Z,100.00
2019-01-26T14:22:07.221Z,100.00
2019-01-26T14:25:11.101Z,100.00
2019-01-26T14:28:14.962Z,100.00
2019-01-26T14:31:18.625Z,99.98
2019-01-26T14:34:22.201Z,100.00
2019-01-26T14:37:25.819Z,99.76
2019-01-26T14:40:29.553Z,99.68
2019-01-26T14:43:33.206Z,99.63
2019-01-26T14:46:36.870Z,98.97
2019-01-26T14:49:40.548Z,98.87
2019-01-26T14:52:44.257Z,98.80
2019-01-26T14:55:48.027Z,99.25
2019-01-26T14:58:51.684Z,99.44
2019-01-26T15:01:55.364Z,99.35
2019-01-26T15:04:58.992Z,99.18
2019-01-26T15:08:02.688Z,99.35
2019-01-26T15:11:06.961Z,98.71
2019-01-26T15:14:10.642Z,99.13
2019-01-26T15:17:14.320Z,99.94
2019-01-26T15:20:25.842Z,99.52
2019-01-26T15:23:30.331Z,99.40
2019-01-26T15:26:34.099Z,99.33
2019-01-26T15:29:37.693Z,99.30
2019-01-26T15:32:41.297Z,99.37
2019-01-26T15:35:45.017Z,100.00
2019-01-26T15:38:49.068Z,100.00
2019-01-26T15:41:52.759Z,100.00
2019-01-26T15:44:56.324Z,100.00
2019-01-26T15:48:00.041Z,100.00
2019-01-26T15:51:03.699Z,100.00
2019-01-26T15:54:07.405Z,100.00
2019-01-26T15:57:12.840Z,100.00
2019-01-26T16:00:19.037Z,100.00
2019-01-26T16:03:22.802Z,100.00
2019-01-26T16:06:26.886Z,100.00
2019-01-26T16:09:31.139Z,100.00
2019-01-26T16:12:34.719Z,100.00
2019-01-26T16:15:39.428Z,100.00
2019-01-26T16:18:43.469Z,100.00
2019-01-26T16:21:47.399Z,100.00
2019-01-26T16:24:51.028Z,100.00
2019-01-26T16:27:54.729Z,100.00
2019-01-26T16:30:58.492Z,100.00
2019-01-26T16:34:02.547Z,100.00
2019-01-26T16:37:06.241Z,100.00
2019-01-26T16:40:13.125Z,100.00
2019-01-26T16:43:17.353Z,100.00
2019-01-26T16:46:23.609Z,100.00
2019-01-26T16:49:28.359Z,100.00
2019-01-26T16:52:32.274Z,100.00
2019-01-26T16:55:37.357Z,100.00
2019-01-26T16:58:41.942Z,100.00
2019-01-26T17:01:46.623Z,100.00
2019-01-26T17:04:51.145Z,100.00
2019-01-26T17:07:56.270Z,100.00
2019-01-26T17:11:02.170Z,100.00
2019-01-26T17:14:07.609Z,100.00
2019-01-26T17:17:11.185Z,100.00
2019-01-26T17:20:18.205Z,100.00
2019-01-26T17:23:22.104Z,100.00
2019-01-26T17:26:25.813Z,100.00
2019-01-26T17:29:29.396Z,100.00
2019-01-26T17:32:33.034Z,100.00
2019-01-26T17:35:37.294Z,100.00
2019-01-26T17:38:40.973Z,100.00
2019-01-26T17:41:45.820Z,100.00
2019-01-26T17:44:49.521Z,100.00
2019-01-26T17:47:53.646Z,100.00
2019-01-26T17:50:58.288Z,100.00
2019-01-26T17:54:01.977Z,100.00
2019-01-26T17:57:06.508Z,100.00
2019-01-26T18:00:13.544Z,100.00
2019-01-26T18:03:17.291Z,100.00
2019-01-26T18:06:21.084Z,100.00
2019-01-26T18:09:24.793Z,100.00
2019-01-26T18:12:28.647Z,100.00
2019-01-26T18:15:32.322Z,100.00
2019-01-26T18:18:36.181Z,100.00
2019-01-26T18:21:40.985Z,100.00
2019-01-26T18:24:44.290Z,100.00
2019-01-26T18:27:48.491Z,100.00
2019-01-26T18:30:52.307Z,100.00
2019-01-26T18:33:56.103Z,100.00
2019-01-26T18:37:00.985Z,100.00
2019-01-26T18:40:06.007Z,100.00
2019-01-26T18:43:09.829Z,100.00
2019-01-26T18:46:13.593Z,100.00
2019-01-26T18:49:17.356Z,100.00
2019-01-26T18:52:21.116Z,100.00
2019-01-26T18:55:24.860Z,100.00
2019-01-26T18:58:28.989Z,100.00
2019-01-26T19:01:33.122Z,100.00
2019-01-26T19:04:42.649Z,100.00
2019-01-26T19:07:46.914Z,100.00
2019-01-26T19:10:50.561Z,100.00
2019-01-26T19:13:54.542Z,100.00
2019-01-26T19:16:58.652Z,100.00
2019-01-26T19:20:02.357Z,100.00
2019-01-26T19:23:07.639Z,100.00
2019-01-26T19:26:11.436Z,100.00
2019-01-26T19:29:17.850Z,100.00
2019-01-26T19:32:22.153Z,100.00
2019-01-26T19:35:25.980Z,100.00
2019-01-26T19:38:29.621Z,100.00
2019-01-26T19:41:33.767Z,100.00
2019-01-26T19:44:37.750Z,100.00
2019-01-26T19:47:41.541Z,100.00
2019-01-26T19:50:45.249Z,100.00
2019-01-26T19:53:48.988Z,100.00
2019-01-26T19:56:52.943Z,100.00
2019-01-26T19:59:57.137Z,100.00
2019-01-26T20:03:00.758Z,100.00
2019-01-26T20:06:04.431Z,100.00
2019-01-26T20:09:09.585Z,100.00
2019-01-26T20:12:13.428Z,100.00
2019-01-26T20:15:19.503Z,100.00
2019-01-26T20:18:23.477Z,100.00
2019-01-26T20:21:29.225Z,100.00
2019-01-26T20:24:32.956Z,100.00
2019-01-26T20:27:36.607Z,100.00
2019-01-26T20:30:40.476Z,100.00
2019-01-26T20:33:44.005Z,100.00
2019-01-26T20:36:47.674Z,100.00
2019-01-26T20:39:51.286Z,100.00
2019-01-26T20:42:55.034Z,100.00
2019-01-26T20:45:58.912Z,100.00
2019-01-26T20:49:02.534Z,100.00
2019-01-26T20:52:06.268Z,100.00
2019-01-26T20:55:10.478Z,100.00
2019-01-26T20:58:14.204Z,100.00
2019-01-26T21:01:17.858Z,100.00
2019-01-26T21:04:21.486Z,100.00
2019-01-26T21:07:25.213Z,100.00
2019-01-26T21:10:30.055Z,100.00
2019-01-26T21:13:33.826Z,100.00
2019-01-26T21:16:37.618Z,100.00
2019-01-26T21:19:42.290Z,100.00
2019-01-26T21:22:46.091Z,100.00
2019-01-26T21:25:49.996Z,100.00
2019-01-26T21:28:53.691Z,100.00
2019-01-26T21:31:58.012Z,100.00
2019-01-26T21:35:02.773Z,100.00
2019-01-26T21:38:06.456Z,100.00
2019-01-26T21:41:10.199Z,100.00
2019-01-26T21:44:13.769Z,100.00
2019-01-26T21:47:17.327Z,100.00
2019-01-26T21:50:25.586Z,100.00
2019-01-26T21:53:29.316Z,100.00
2019-01-26T21:56:33.456Z,100.00
2019-01-26T21:59:37.333Z,100.00
2019-01-26T22:02:40.985Z,100.00
2019-01-26T22:05:44.919Z,100.00
2019-01-26T22:08:49.294Z,100.00
2019-01-26T22:11:52.951Z,100.00
2019-01-26T22:14:56.581Z,100.00
2019-01-26T22:18:00.181Z,100.00
2019-01-26T22:21:03.996Z,100.00
2019-01-26T22:24:07.694Z,100.00
2019-01-26T22:27:11.714Z,100.00
2019-01-26T22:30:19.984Z,100.00
2019-01-26T22:33:24.122Z,100.00
2019-01-26T22:36:28.091Z,100.00
2019-01-26T22:39:31.962Z,100.00
2019-01-26T22:42:35.674Z,100.00
2019-01-26T22:45:39.681Z,100.00
2019-01-26T22:48:43.288Z,100.00
2019-01-26T22:51:53.225Z,100.00
2019-01-26T22:54:51.484Z,100.00
2019-01-26T22:57:55.335Z,100.00
2019-01-26T23:01:10.637Z,100.00
2019-01-26T23:05:26.158Z,100.00
2019-01-26T23:08:30.953Z,100.00
2019-01-26T23:12:21.773Z,100.00
2019-01-26T23:16:51.978Z,100.00
2019-01-26T23:20:01.836Z,100.00
2019-01-26T23:23:24.181Z,100.00
2019-01-26T23:31:06.607Z,100.00
2019-01-26T23:34:10.285Z,100.00
2019-01-26T23:37:14.077Z,100.00
2019-01-26T23:40:17.897Z,100.00
2019-01-26T23:43:21.575Z,100.00
2019-01-26T23:46:25.211Z,100.00
2019-01-26T23:49:28.876Z,100.00
2019-01-26T23:52:32.539Z,100.00
2019-01-26T23:55:36.153Z,100.00
2019-01-26T23:58:39.792Z,100.00
